sensor_id;sensor_type;location;lat;lon;timestamp;pressure;altitude;pressure_sealevel;temperature;humidity
70338;BME280;57757;53.198;19.646;2023-05-11T00:01:22;100710.88;;;10.80;25.87
70338;BME280;57757;53.198;19.646;2023-05-11T00:03:49;100709.84;;;10.79;25.81
70338;BME280;57757;53.198;19.646;2023-05-11T00:06:17;100706.73;;;10.77;25.80
70338;BME280;57757;53.198;19.646;2023-05-11T00:08:45;100708.48;;;10.76;25.94
70338;BME280;57757;53.198;19.646;2023-05-11T00:11:13;100710.11;;;10.73;25.93
70338;BME280;57757;53.198;19.646;2023-05-11T00:13:41;100707.19;;;10.70;26.01
70338;BME280;57757;53.198;19.646;2023-05-11T00:16:08;100709.98;;;10.70;26.03
70338;BME280;57757;53.198;19.646;2023-05-11T00:18:36;100705.14;;;10.69;26.09
70338;BME280;57757;53.198;19.646;2023-05-11T00:21:04;100707.23;;;10.68;26.14
70338;BME280;57757;53.198;19.646;2023-05-11T00:23:32;100708.12;;;10.66;26.16
70338;BME280;57757;53.198;19.646;2023-05-11T00:25:59;100706.94;;;10.64;26.12
70338;BME280;57757;53.198;19.646;2023-05-11T00:28:27;100708.38;;;10.61;26.15
70338;BME280;57757;53.198;19.646;2023-05-11T00:30:56;100709.80;;;10.58;26.26
70338;BME280;57757;53.198;19.646;2023-05-11T00:33:36;100707.77;;;10.55;26.30
70338;BME280;57757;53.198;19.646;2023-05-11T00:36:04;100710.22;;;10.53;26.39
70338;BME280;57757;53.198;19.646;2023-05-11T00:38:32;100708.38;;;10.50;26.46
70338;BME280;57757;53.198;19.646;2023-05-11T00:41:01;100706.84;;;10.48;26.49
70338;BME280;57757;53.198;19.646;2023-05-11T00:43:29;100708.43;;;10.46;26.52
70338;BME280;57757;53.198;19.646;2023-05-11T00:45:57;100711.58;;;10.46;26.48
70338;BME280;57757;53.198;19.646;2023-05-11T00:48:25;100707.38;;;10.46;26.54
70338;BME280;57757;53.198;19.646;2023-05-11T00:50:53;100703.76;;;10.45;26.65
70338;BME280;57757;53.198;19.646;2023-05-11T00:53:21;100701.72;;;10.41;26.58
70338;BME280;57757;53.198;19.646;2023-05-11T00:55:48;100702.11;;;10.38;26.74
70338;BME280;57757;53.198;19.646;2023-05-11T00:58:16;100700.73;;;10.38;26.70
70338;BME280;57757;53.198;19.646;2023-05-11T01:00:44;100700.73;;;10.37;26.86
70338;BME280;57757;53.198;19.646;2023-05-11T01:03:14;100699.36;;;10.36;26.81
70338;BME280;57757;53.198;19.646;2023-05-11T01:05:51;100699.55;;;10.35;26.84
70338;BME280;57757;53.198;19.646;2023-05-11T01:08:24;100700.09;;;10.35;26.89
70338;BME280;57757;53.198;19.646;2023-05-11T01:11:01;100697.32;;;10.33;26.90
70338;BME280;57757;53.198;19.646;2023-05-11T01:13:33;100698.06;;;10.30;27.01
70338;BME280;57757;53.198;19.646;2023-05-11T01:16:22;100702.59;;;10.29;27.04
70338;BME280;57757;53.198;19.646;2023-05-11T01:19:07;100704.55;;;10.26;27.06
70338;BME280;57757;53.198;19.646;2023-05-11T01:21:38;100706.69;;;10.22;27.07
70338;BME280;57757;53.198;19.646;2023-05-11T01:24:25;100702.70;;;10.21;27.05
70338;BME280;57757;53.198;19.646;2023-05-11T01:32:27;100703.27;;;10.17;27.21
70338;BME280;57757;53.198;19.646;2023-05-11T01:35:10;100702.42;;;10.16;27.23
70338;BME280;57757;53.198;19.646;2023-05-11T01:37:40;100700.88;;;10.16;27.42
70338;BME280;57757;53.198;19.646;2023-05-11T01:40:15;100701.73;;;10.14;27.42
70338;BME280;57757;53.198;19.646;2023-05-11T01:42:47;100704.38;;;10.11;27.39
70338;BME280;57757;53.198;19.646;2023-05-11T01:45:17;100708.39;;;10.08;27.38
70338;BME280;57757;53.198;19.646;2023-05-11T01:47:47;100707.39;;;10.06;27.45
70338;BME280;57757;53.198;19.646;2023-05-11T01:50:17;100706.73;;;10.02;27.51
70338;BME280;57757;53.198;19.646;2023-05-11T01:52:49;100704.89;;;9.97;27.60
70338;BME280;57757;53.198;19.646;2023-05-11T01:55:21;100701.28;;;9.95;27.64
70338;BME280;57757;53.198;19.646;2023-05-11T01:57:52;100704.10;;;9.92;27.59
70338;BME280;57757;53.198;19.646;2023-05-11T02:00:21;100705.68;;;9.90;27.71
70338;BME280;57757;53.198;19.646;2023-05-11T02:02:52;100705.00;;;9.89;27.72
70338;BME280;57757;53.198;19.646;2023-05-11T02:05:22;100706.59;;;9.86;27.70
70338;BME280;57757;53.198;19.646;2023-05-11T02:07:53;100709.02;;;9.85;27.67
70338;BME280;57757;53.198;19.646;2023-05-11T02:10:24;100705.77;;;9.83;27.84
70338;BME280;57757;53.198;19.646;2023-05-11T02:12:53;100705.77;;;9.82;27.78
70338;BME280;57757;53.198;19.646;2023-05-11T02:15:23;100704.38;;;9.82;27.87
70338;BME280;57757;53.198;19.646;2023-05-11T02:17:52;100705.11;;;9.80;27.88
70338;BME280;57757;53.198;19.646;2023-05-11T02:20:22;100706.51;;;9.80;27.88
70338;BME280;57757;53.198;19.646;2023-05-11T02:22:52;100704.77;;;9.80;27.90
70338;BME280;57757;53.198;19.646;2023-05-11T02:25:23;100703.91;;;9.79;27.80
70338;BME280;57757;53.198;19.646;2023-05-11T02:27:51;100706.16;;;9.79;27.83
70338;BME280;57757;53.198;19.646;2023-05-11T02:30:19;100706.51;;;9.79;27.91
70338;BME280;57757;53.198;19.646;2023-05-11T02:32:50;100709.98;;;9.78;27.98
70338;BME280;57757;53.198;19.646;2023-05-11T02:35:23;100709.49;;;9.77;27.96
70338;BME280;57757;53.198;19.646;2023-05-11T02:37:55;100708.46;;;9.76;28.01
70338;BME280;57757;53.198;19.646;2023-05-11T02:40:28;100716.11;;;9.75;28.07
70338;BME280;57757;53.198;19.646;2023-05-11T02:43:01;100716.48;;;9.73;28.11
70338;BME280;57757;53.198;19.646;2023-05-11T02:45:31;100717.40;;;9.69;28.07
70338;BME280;57757;53.198;19.646;2023-05-11T02:48:06;100719.32;;;9.67;28.18
70338;BME280;57757;53.198;19.646;2023-05-11T02:50:38;100717.95;;;9.66;28.15
70338;BME280;57757;53.198;19.646;2023-05-11T02:53:10;100715.89;;;9.63;28.22
70338;BME280;57757;53.198;19.646;2023-05-11T02:55:41;100719.37;;;9.63;28.27
70338;BME280;57757;53.198;19.646;2023-05-11T02:58:09;100721.13;;;9.62;28.32
70338;BME280;57757;53.198;19.646;2023-05-11T03:00:38;100726.02;;;9.60;28.33
70338;BME280;57757;53.198;19.646;2023-05-11T03:03:06;100723.26;;;9.58;28.42
70338;BME280;57757;53.198;19.646;2023-05-11T03:05:34;100725.52;;;9.58;28.30
70338;BME280;57757;53.198;19.646;2023-05-11T03:08:02;100726.04;;;9.58;28.49
70338;BME280;57757;53.198;19.646;2023-05-11T03:10:30;100726.20;;;9.58;28.50
70338;BME280;57757;53.198;19.646;2023-05-11T03:12:58;100724.62;;;9.59;28.61
70338;BME280;57757;53.198;19.646;2023-05-11T03:15:27;100726.02;;;9.59;28.47
70338;BME280;57757;53.198;19.646;2023-05-11T03:17:56;100727.95;;;9.58;28.59
70338;BME280;57757;53.198;19.646;2023-05-11T03:20:26;100726.91;;;9.58;28.60
70338;BME280;57757;53.198;19.646;2023-05-11T03:22:54;100730.52;;;9.60;28.60
70338;BME280;57757;53.198;19.646;2023-05-11T03:25:23;100728.06;;;9.62;28.75
70338;BME280;57757;53.198;19.646;2023-05-11T03:27:52;100733.09;;;9.63;28.76
70338;BME280;57757;53.198;19.646;2023-05-11T03:30:21;100741.23;;;9.65;28.83
70338;BME280;57757;53.198;19.646;2023-05-11T03:32:51;100744.70;;;9.65;28.84
70338;BME280;57757;53.198;19.646;2023-05-11T03:35:21;100736.73;;;9.65;28.85
70338;BME280;57757;53.198;19.646;2023-05-11T03:37:52;100741.23;;;9.65;28.92
70338;BME280;57757;53.198;19.646;2023-05-11T03:40:22;100741.20;;;9.67;28.97
70338;BME280;57757;53.198;19.646;2023-05-11T03:42:52;100743.96;;;9.70;29.00
70338;BME280;57757;53.198;19.646;2023-05-11T03:45:22;100742.55;;;9.72;29.01
70338;BME280;57757;53.198;19.646;2023-05-11T03:47:50;100743.38;;;9.75;29.11
70338;BME280;57757;53.198;19.646;2023-05-11T03:50:18;100745.09;;;9.78;28.99
70338;BME280;57757;53.198;19.646;2023-05-11T03:52:48;100743.33;;;9.80;28.99
70338;BME280;57757;53.198;19.646;2023-05-11T03:55:16;100744.83;;;9.85;29.00
70338;BME280;57757;53.198;19.646;2023-05-11T03:57:44;100748.24;;;9.90;28.98
70338;BME280;57757;53.198;19.646;2023-05-11T04:00:13;100751.84;;;9.95;28.97
70338;BME280;57757;53.198;19.646;2023-05-11T04:02:41;100747.09;;;9.99;29.02
70338;BME280;57757;53.198;19.646;2023-05-11T04:05:10;100749.80;;;10.04;29.02
70338;BME280;57757;53.198;19.646;2023-05-11T04:07:39;100752.84;;;10.11;29.18
70338;BME280;57757;53.198;19.646;2023-05-11T04:10:07;100752.10;;;10.18;29.21
70338;BME280;57757;53.198;19.646;2023-05-11T04:12:35;100752.34;;;10.26;29.19
70338;BME280;57757;53.198;19.646;2023-05-11T04:15:02;100753.30;;;10.32;29.18
70338;BME280;57757;53.198;19.646;2023-05-11T04:17:30;100754.77;;;10.39;29.14
70338;BME280;57757;53.198;19.646;2023-05-11T04:19:58;100752.25;;;10.46;29.26
70338;BME280;57757;53.198;19.646;2023-05-11T04:22:26;100751.09;;;10.53;29.26
70338;BME280;57757;53.198;19.646;2023-05-11T04:24:54;100754.66;;;10.60;29.09
70338;BME280;57757;53.198;19.646;2023-05-11T04:27:21;100758.75;;;10.66;29.04
70338;BME280;57757;53.198;19.646;2023-05-11T04:29:49;100760.05;;;10.72;29.08
70338;BME280;57757;53.198;19.646;2023-05-11T04:32:17;100755.94;;;10.79;29.15
70338;BME280;57757;53.198;19.646;2023-05-11T04:34:44;100756.19;;;10.85;29.06
70338;BME280;57757;53.198;19.646;2023-05-11T04:37:12;100757.98;;;10.94;29.18
70338;BME280;57757;53.198;19.646;2023-05-11T04:39:40;100759.95;;;11.00;29.14
70338;BME280;57757;53.198;19.646;2023-05-11T04:42:07;100760.36;;;11.08;29.07
70338;BME280;57757;53.198;19.646;2023-05-11T04:44:38;100765.45;;;11.15;29.00
70338;BME280;57757;53.198;19.646;2023-05-11T04:47:06;100765.00;;;11.22;29.07
70338;BME280;57757;53.198;19.646;2023-05-11T04:49:34;100766.42;;;11.30;29.10
70338;BME280;57757;53.198;19.646;2023-05-11T04:52:02;100768.54;;;11.39;29.00
70338;BME280;57757;53.198;19.646;2023-05-11T04:54:30;100769.26;;;11.47;29.12
70338;BME280;57757;53.198;19.646;2023-05-11T04:56:57;100763.70;;;11.55;29.05
70338;BME280;57757;53.198;19.646;2023-05-11T04:59:25;100765.80;;;11.64;28.99
70338;BME280;57757;53.198;19.646;2023-05-11T05:01:52;100768.27;;;11.73;29.06
70338;BME280;57757;53.198;19.646;2023-05-11T05:04:20;100771.08;;;11.82;28.91
70338;BME280;57757;53.198;19.646;2023-05-11T05:06:48;100770.20;;;11.91;28.94
70338;BME280;57757;53.198;19.646;2023-05-11T05:09:15;100770.73;;;11.99;28.88
70338;BME280;57757;53.198;19.646;2023-05-11T05:11:43;100765.67;;;12.09;29.02
70338;BME280;57757;53.198;19.646;2023-05-11T05:14:10;100767.06;;;12.17;28.87
70338;BME280;57757;53.198;19.646;2023-05-11T05:16:38;100767.71;;;12.27;28.91
70338;BME280;57757;53.198;19.646;2023-05-11T05:19:05;100765.25;;;12.36;28.98
70338;BME280;57757;53.198;19.646;2023-05-11T05:21:33;100769.75;;;12.46;28.96
70338;BME280;57757;53.198;19.646;2023-05-11T05:24:02;100767.79;;;12.56;28.74
70338;BME280;57757;53.198;19.646;2023-05-11T05:26:32;100767.21;;;12.66;28.95
70338;BME280;57757;53.198;19.646;2023-05-11T05:29:00;100768.23;;;12.75;28.66
70338;BME280;57757;53.198;19.646;2023-05-11T05:31:28;100770.42;;;12.85;28.74
70338;BME280;57757;53.198;19.646;2023-05-11T05:33:56;100773.56;;;12.92;28.52
70338;BME280;57757;53.198;19.646;2023-05-11T05:36:25;100775.45;;;13.01;28.53
70338;BME280;57757;53.198;19.646;2023-05-11T05:38:53;100776.08;;;13.12;28.49
70338;BME280;57757;53.198;19.646;2023-05-11T05:41:21;100778.42;;;13.24;28.50
70338;BME280;57757;53.198;19.646;2023-05-11T05:43:49;100782.67;;;13.35;28.38
70338;BME280;57757;53.198;19.646;2023-05-11T05:46:20;100779.74;;;13.47;28.51
70338;BME280;57757;53.198;19.646;2023-05-11T05:48:53;100782.10;;;13.58;28.35
70338;BME280;57757;53.198;19.646;2023-05-11T05:51:22;100780.95;;;13.67;28.47
70338;BME280;57757;53.198;19.646;2023-05-11T05:53:49;100777.36;;;13.78;28.19
70338;BME280;57757;53.198;19.646;2023-05-11T05:56:19;100780.55;;;13.89;28.16
70338;BME280;57757;53.198;19.646;2023-05-11T05:58:50;100780.23;;;14.01;28.33
70338;BME280;57757;53.198;19.646;2023-05-11T06:01:17;100775.16;;;14.13;28.16
70338;BME280;57757;53.198;19.646;2023-05-11T06:03:45;100777.69;;;14.22;27.97
70338;BME280;57757;53.198;19.646;2023-05-11T06:06:14;100775.48;;;14.31;27.96
70338;BME280;57757;53.198;19.646;2023-05-11T06:08:42;100780.46;;;14.42;27.94
70338;BME280;57757;53.198;19.646;2023-05-11T06:11:13;100778.09;;;14.51;27.78
70338;BME280;57757;53.198;19.646;2023-05-11T06:13:43;100782.05;;;14.58;27.89
70338;BME280;57757;53.198;19.646;2023-05-11T06:16:17;100785.63;;;14.68;27.79
70338;BME280;57757;53.198;19.646;2023-05-11T06:18:47;100787.60;;;14.77;27.67
70338;BME280;57757;53.198;19.646;2023-05-11T06:21:22;100785.25;;;14.85;27.59
70338;BME280;57757;53.198;19.646;2023-05-11T06:23:49;100783.45;;;14.93;27.56
70338;BME280;57757;53.198;19.646;2023-05-11T06:26:17;100789.63;;;15.02;27.63
70338;BME280;57757;53.198;19.646;2023-05-11T06:28:45;100787.95;;;15.10;27.42
70338;BME280;57757;53.198;19.646;2023-05-11T06:31:13;100789.02;;;15.20;27.64
70338;BME280;57757;53.198;19.646;2023-05-11T06:33:41;100788.26;;;15.27;27.38
70338;BME280;57757;53.198;19.646;2023-05-11T06:36:09;100781.80;;;15.38;27.56
70338;BME280;57757;53.198;19.646;2023-05-11T06:38:37;100788.77;;;15.44;27.46
70338;BME280;57757;53.198;19.646;2023-05-11T06:41:07;100785.02;;;15.51;27.50
70338;BME280;57757;53.198;19.646;2023-05-11T06:43:37;100784.14;;;15.62;27.33
70338;BME280;57757;53.198;19.646;2023-05-11T06:46:05;100785.73;;;15.71;27.17
70338;BME280;57757;53.198;19.646;2023-05-11T06:48:33;100783.65;;;15.81;27.20
70338;BME280;57757;53.198;19.646;2023-05-11T06:51:00;100786.42;;;15.87;27.17
70338;BME280;57757;53.198;19.646;2023-05-11T06:53:28;100786.88;;;15.93;27.14
70338;BME280;57757;53.198;19.646;2023-05-11T06:55:56;100782.79;;;16.00;27.05
70338;BME280;57757;53.198;19.646;2023-05-11T06:58:23;100785.38;;;16.06;27.16
70338;BME280;57757;53.198;19.646;2023-05-11T07:00:51;100783.89;;;16.13;27.08
70338;BME280;57757;53.198;19.646;2023-05-11T07:03:18;100778.72;;;16.19;27.15
70338;BME280;57757;53.198;19.646;2023-05-11T07:05:47;100778.04;;;16.28;27.21
70338;BME280;57757;53.198;19.646;2023-05-11T07:08:15;100777.07;;;16.40;27.11
70338;BME280;57757;53.198;19.646;2023-05-11T07:10:43;100777.41;;;16.49;27.03
70338;BME280;57757;53.198;19.646;2023-05-11T07:13:10;100775.45;;;16.54;26.85
70338;BME280;57757;53.198;19.646;2023-05-11T07:15:38;100776.48;;;16.61;26.95
70338;BME280;57757;53.198;19.646;2023-05-11T07:18:05;100775.71;;;16.66;26.85
70338;BME280;57757;53.198;19.646;2023-05-11T07:20:33;100776.20;;;16.72;26.82
70338;BME280;57757;53.198;19.646;2023-05-11T07:23:03;100771.27;;;16.78;26.83
70338;BME280;57757;53.198;19.646;2023-05-11T07:25:31;100775.48;;;16.86;26.86
70338;BME280;57757;53.198;19.646;2023-05-11T07:27:59;100775.98;;;16.95;26.83
70338;BME280;57757;53.198;19.646;2023-05-11T07:30:28;100775.80;;;17.04;26.85
70338;BME280;57757;53.198;19.646;2023-05-11T07:32:57;100780.89;;;17.12;26.74
70338;BME280;57757;53.198;19.646;2023-05-11T07:35:24;100778.67;;;17.19;26.45
70338;BME280;57757;53.198;19.646;2023-05-11T07:37:53;100779.36;;;17.24;26.30
70338;BME280;57757;53.198;19.646;2023-05-11T07:40:23;100779.77;;;17.31;26.50
70338;BME280;57757;53.198;19.646;2023-05-11T07:42:51;100778.59;;;17.38;26.45
70338;BME280;57757;53.198;19.646;2023-05-11T07:45:19;100778.44;;;17.46;26.39
70338;BME280;57757;53.198;19.646;2023-05-11T07:47:46;100775.44;;;17.54;26.88
70338;BME280;57757;53.198;19.646;2023-05-11T07:50:14;100780.27;;;17.70;26.94
70338;BME280;57757;53.198;19.646;2023-05-11T07:52:43;100779.70;;;17.83;27.02
70338;BME280;57757;53.198;19.646;2023-05-11T07:55:11;100781.70;;;17.93;27.05
70338;BME280;57757;53.198;19.646;2023-05-11T07:57:44;100775.83;;;18.02;26.79
70338;BME280;57757;53.198;19.646;2023-05-11T08:00:12;100769.52;;;18.13;26.22
70338;BME280;57757;53.198;19.646;2023-05-11T08:02:40;100768.55;;;18.23;26.24
70338;BME280;57757;53.198;19.646;2023-05-11T08:05:09;100769.17;;;18.28;26.05
70338;BME280;57757;53.198;19.646;2023-05-11T08:07:36;100767.66;;;18.31;25.79
70338;BME280;57757;53.198;19.646;2023-05-11T08:10:08;100771.41;;;18.33;25.77
70338;BME280;57757;53.198;19.646;2023-05-11T08:12:36;100771.56;;;18.38;25.75
70338;BME280;57757;53.198;19.646;2023-05-11T08:15:04;100771.77;;;18.41;25.62
70338;BME280;57757;53.198;19.646;2023-05-11T08:17:33;100773.00;;;18.48;25.47
70338;BME280;57757;53.198;19.646;2023-05-11T08:20:02;100774.23;;;18.52;25.34
70338;BME280;57757;53.198;19.646;2023-05-11T08:22:30;100773.02;;;18.55;25.21
70338;BME280;57757;53.198;19.646;2023-05-11T08:24:58;100779.00;;;18.60;25.70
70338;BME280;57757;53.198;19.646;2023-05-11T08:27:26;100771.77;;;18.75;25.90
70338;BME280;57757;53.198;19.646;2023-05-11T08:29:54;100777.36;;;18.94;25.98
70338;BME280;57757;53.198;19.646;2023-05-11T08:32:22;100774.91;;;19.15;25.81
70338;BME280;57757;53.198;19.646;2023-05-11T08:34:50;100769.28;;;19.32;25.69
70338;BME280;57757;53.198;19.646;2023-05-11T08:37:18;100772.23;;;19.55;26.03
70338;BME280;57757;53.198;19.646;2023-05-11T08:39:46;100764.91;;;19.73;25.51
70338;BME280;57757;53.198;19.646;2023-05-11T08:42:15;100772.88;;;19.80;25.27
70338;BME280;57757;53.198;19.646;2023-05-11T08:44:43;100772.27;;;19.71;24.83
70338;BME280;57757;53.198;19.646;2023-05-11T08:47:11;100766.05;;;19.44;24.75
70338;BME280;57757;53.198;19.646;2023-05-11T08:49:42;100768.30;;;19.41;25.26
70338;BME280;57757;53.198;19.646;2023-05-11T08:52:13;100762.77;;;19.57;25.16
70338;BME280;57757;53.198;19.646;2023-05-11T08:54:42;100756.79;;;19.74;25.22
70338;BME280;57757;53.198;19.646;2023-05-11T08:57:12;100760.25;;;19.95;25.47
70338;BME280;57757;53.198;19.646;2023-05-11T08:59:44;100754.71;;;20.15;24.98
70338;BME280;57757;53.198;19.646;2023-05-11T09:02:17;100751.56;;;20.32;25.05
70338;BME280;57757;53.198;19.646;2023-05-11T09:04:46;100751.33;;;20.45;24.82
70338;BME280;57757;53.198;19.646;2023-05-11T09:07:16;100751.50;;;20.59;24.88
70338;BME280;57757;53.198;19.646;2023-05-11T09:09:45;100757.14;;;20.74;24.88
70338;BME280;57757;53.198;19.646;2023-05-11T09:12:15;100752.46;;;20.88;24.82
70338;BME280;57757;53.198;19.646;2023-05-11T09:14:43;100752.75;;;21.04;24.73
70338;BME280;57757;53.198;19.646;2023-05-11T09:17:11;100758.45;;;21.13;24.32
70338;BME280;57757;53.198;19.646;2023-05-11T09:19:58;100760.11;;;21.12;24.26
70338;BME280;57757;53.198;19.646;2023-05-11T09:22:27;100753.05;;;21.12;24.15
70338;BME280;57757;53.198;19.646;2023-05-11T09:25:00;100752.30;;;21.25;24.29
70338;BME280;57757;53.198;19.646;2023-05-11T09:27:28;100746.76;;;21.37;24.05
70338;BME280;57757;53.198;19.646;2023-05-11T09:29:56;100745.64;;;21.53;24.29
70338;BME280;57757;53.198;19.646;2023-05-11T09:32:23;100744.52;;;21.69;24.39
70338;BME280;57757;53.198;19.646;2023-05-11T09:34:51;100752.87;;;21.83;24.08
70338;BME280;57757;53.198;19.646;2023-05-11T09:37:19;100743.30;;;21.92;23.98
70338;BME280;57757;53.198;19.646;2023-05-11T09:39:52;100745.90;;;22.10;24.15
70338;BME280;57757;53.198;19.646;2023-05-11T09:42:41;100744.45;;;22.36;24.12
70338;BME280;57757;53.198;19.646;2023-05-11T09:45:09;100748.78;;;22.51;24.01
70338;BME280;57757;53.198;19.646;2023-05-11T09:47:39;100747.16;;;22.65;24.07
70338;BME280;57757;53.198;19.646;2023-05-11T09:50:23;100747.23;;;22.86;24.01
70338;BME280;57757;53.198;19.646;2023-05-11T09:52:53;100739.25;;;23.13;23.70
70338;BME280;57757;53.198;19.646;2023-05-11T09:55:20;100747.85;;;23.35;23.52
70338;BME280;57757;53.198;19.646;2023-05-11T09:57:58;100743.63;;;23.61;23.57
70338;BME280;57757;53.198;19.646;2023-05-11T10:00:26;100734.23;;;23.89;23.23
70338;BME280;57757;53.198;19.646;2023-05-11T10:03:06;100731.19;;;23.91;22.82
70338;BME280;57757;53.198;19.646;2023-05-11T10:05:35;100741.10;;;24.04;23.11
70338;BME280;57757;53.198;19.646;2023-05-11T10:08:04;100739.77;;;24.21;22.81
70338;BME280;57757;53.198;19.646;2023-05-11T10:10:33;100737.54;;;24.32;22.73
70338;BME280;57757;53.198;19.646;2023-05-11T10:13:01;100728.17;;;24.49;22.88
70338;BME280;57757;53.198;19.646;2023-05-11T10:15:32;100724.96;;;24.61;22.65
70338;BME280;57757;53.198;19.646;2023-05-11T10:18:01;100730.88;;;24.72;22.38
70338;BME280;57757;53.198;19.646;2023-05-11T10:20:31;100728.76;;;24.72;22.19
70338;BME280;57757;53.198;19.646;2023-05-11T10:23:00;100727.28;;;24.73;22.25
70338;BME280;57757;53.198;19.646;2023-05-11T10:25:27;100718.10;;;24.77;22.22
70338;BME280;57757;53.198;19.646;2023-05-11T10:27:56;100719.16;;;24.99;22.19
70338;BME280;57757;53.198;19.646;2023-05-11T10:30:24;100719.98;;;25.09;21.98
70338;BME280;57757;53.198;19.646;2023-05-11T10:32:54;100713.16;;;25.19;21.90
70338;BME280;57757;53.198;19.646;2023-05-11T10:35:25;100711.95;;;25.35;21.70
70338;BME280;57757;53.198;19.646;2023-05-11T10:37:53;100704.80;;;25.44;21.52
70338;BME280;57757;53.198;19.646;2023-05-11T10:40:21;100695.48;;;25.38;21.43
70338;BME280;57757;53.198;19.646;2023-05-11T11:00:02;100692.15;;;26.71;20.84
70338;BME280;57757;53.198;19.646;2023-05-11T11:02:39;100688.94;;;26.80;20.70
70338;BME280;57757;53.198;19.646;2023-05-11T11:05:07;100682.55;;;26.96;20.66
70338;BME280;57757;53.198;19.646;2023-05-11T11:07:57;100678.09;;;27.22;20.50
70338;BME280;57757;53.198;19.646;2023-05-11T11:10:38;100673.02;;;27.45;20.38
70338;BME280;57757;53.198;19.646;2023-05-11T11:13:07;100669.08;;;27.62;20.25
70338;BME280;57757;53.198;19.646;2023-05-11T11:18:24;100668.55;;;28.02;20.11
70338;BME280;57757;53.198;19.646;2023-05-11T11:20:55;100678.88;;;28.27;20.10
70338;BME280;57757;53.198;19.646;2023-05-11T11:26:11;100674.77;;;28.70;19.82
70338;BME280;57757;53.198;19.646;2023-05-11T11:31:30;100677.67;;;29.28;19.56
70338;BME280;57757;53.198;19.646;2023-05-11T11:37:13;100679.46;;;29.39;19.29
70338;BME280;57757;53.198;19.646;2023-05-11T11:44:38;100681.71;;;30.18;18.94
70338;BME280;57757;53.198;19.646;2023-05-11T11:47:22;100679.65;;;30.17;18.67
70338;BME280;57757;53.198;19.646;2023-05-11T11:49:51;100681.36;;;30.34;18.61
70338;BME280;57757;53.198;19.646;2023-05-11T11:54:55;100678.81;;;30.51;18.42
70338;BME280;57757;53.198;19.646;2023-05-11T12:00:05;100681.95;;;30.66;18.01
70338;BME280;57757;53.198;19.646;2023-05-11T12:02:44;100678.69;;;31.02;18.20
70338;BME280;57757;53.198;19.646;2023-05-11T12:05:12;100676.55;;;31.49;18.02
70338;BME280;57757;53.198;19.646;2023-05-11T12:07:42;100674.50;;;31.86;17.86
70338;BME280;57757;53.198;19.646;2023-05-11T12:10:19;100669.88;;;32.04;17.63
70338;BME280;57757;53.198;19.646;2023-05-11T12:12:51;100673.59;;;32.43;17.62
70338;BME280;57757;53.198;19.646;2023-05-11T12:15:29;100675.14;;;32.79;17.53
70338;BME280;57757;53.198;19.646;2023-05-11T12:18:19;100682.98;;;32.99;17.08
70338;BME280;57757;53.198;19.646;2023-05-11T12:20:48;100678.77;;;32.92;16.99
70338;BME280;57757;53.198;19.646;2023-05-11T12:23:15;100671.02;;;32.64;16.96
70338;BME280;57757;53.198;19.646;2023-05-11T12:26:10;100667.47;;;32.80;16.93
70338;BME280;57757;53.198;19.646;2023-05-11T12:28:40;100669.14;;;33.36;16.90
70338;BME280;57757;53.198;19.646;2023-05-11T12:31:09;100664.02;;;33.63;16.52
70338;BME280;57757;53.198;19.646;2023-05-11T12:33:47;100667.40;;;33.79;16.72
70338;BME280;57757;53.198;19.646;2023-05-11T12:36:16;100671.58;;;34.23;16.43
70338;BME280;57757;53.198;19.646;2023-05-11T12:38:44;100664.04;;;34.55;16.44
70338;BME280;57757;53.198;19.646;2023-05-11T12:41:19;100657.48;;;34.77;16.07
70338;BME280;57757;53.198;19.646;2023-05-11T12:43:49;100658.69;;;34.95;15.93
70338;BME280;57757;53.198;19.646;2023-05-11T12:46:18;100657.73;;;35.32;16.04
70338;BME280;57757;53.198;19.646;2023-05-11T12:48:49;100667.77;;;35.44;16.01
70338;BME280;57757;53.198;19.646;2023-05-11T12:54:37;100655.27;;;35.65;15.32
70338;BME280;57757;53.198;19.646;2023-05-11T12:57:07;100652.82;;;35.86;15.31
70338;BME280;57757;53.198;19.646;2023-05-11T12:59:37;100656.60;;;36.11;15.27
70338;BME280;57757;53.198;19.646;2023-05-11T13:02:15;100652.45;;;36.33;14.93
70338;BME280;57757;53.198;19.646;2023-05-11T13:04:45;100645.83;;;36.76;15.14
70338;BME280;57757;53.198;19.646;2023-05-11T13:07:22;100639.21;;;37.15;14.92
70338;BME280;57757;53.198;19.646;2023-05-11T13:09:58;100637.63;;;37.45;15.04
70338;BME280;57757;53.198;19.646;2023-05-11T13:12:27;100646.65;;;37.66;14.65
70338;BME280;57757;53.198;19.646;2023-05-11T13:15:09;100641.73;;;37.84;14.45
70338;BME280;57757;53.198;19.646;2023-05-11T13:17:41;100635.67;;;38.08;14.29
70338;BME280;57757;53.198;19.646;2023-05-11T13:20:30;100634.03;;;38.16;14.22
70338;BME280;57757;53.198;19.646;2023-05-11T13:25:30;100635.03;;;38.71;14.01
70338;BME280;57757;53.198;19.646;2023-05-11T13:27:58;100628.72;;;38.83;13.91
70338;BME280;57757;53.198;19.646;2023-05-11T13:30:27;100633.12;;;38.79;13.60
70338;BME280;57757;53.198;19.646;2023-05-11T13:32:55;100631.48;;;38.77;13.61
70338;BME280;57757;53.198;19.646;2023-05-11T13:35:23;100625.86;;;38.77;13.62
70338;BME280;57757;53.198;19.646;2023-05-11T13:37:50;100627.19;;;38.92;13.63
70338;BME280;57757;53.198;19.646;2023-05-11T13:40:18;100623.49;;;39.16;13.36
70338;BME280;57757;53.198;19.646;2023-05-11T13:42:47;100616.62;;;39.36;13.36
70338;BME280;57757;53.198;19.646;2023-05-11T13:45:14;100614.27;;;39.58;13.17
70338;BME280;57757;53.198;19.646;2023-05-11T13:47:43;100612.82;;;39.68;13.10